Time;durP1;ratioP1;P1;durP2;ratioP2;P2;SDS_P1;SDS_P2;PMS_P1;PMS_P2;Temp;Humidity;BMP_temperature;BMP_pressure;BME280_temperature;BME280_humidity;BME280_pressure;Samples;Min_cycle;Max_cycle;Signal;HPM_P1;HPM_P2
2022/05/14 00:01:48;;;;;;;0.00;0.00;;;;;;;;;;5052925;28;20513;-58
2022/05/14 00:04:13;;;;;;;0.00;0.00;;;;;;;;;;5050029;28;20051;-59
2022/05/14 00:06:38;;;;;;;1.33;1.23;;;;;;;;;;5051532;28;20063;-59
2022/05/14 00:09:05;;;;;;;0.00;0.00;;;;;;;;;;5062288;28;20017;-58
2022/05/14 00:14:14;;;;;;;0.00;0.00;;;;;;;;;;5056064;28;20027;-58
2022/05/14 00:16:40;;;;;;;0.00;0.00;;;;;;;;;;5060498;28;20104;-57
2022/05/14 00:19:06;;;;;;;0.00;0.00;;;;;;;;;;5057225;28;20016;-58
2022/05/14 00:21:32;;;;;;;0.00;0.00;;;;;;;;;;5051982;28;20025;-58
2022/05/14 00:23:58;;;;;;;0.00;0.00;;;;;;;;;;5057959;28;20021;-59
2022/05/14 00:26:24;;;;;;;0.00;0.00;;;;;;;;;;5053508;28;20021;-58
2022/05/14 00:28:49;;;;;;;0.00;0.00;;;;;;;;;;5058368;28;20584;-59
2022/05/14 00:31:14;;;;;;;0.05;0.05;;;;;;;;;;5048619;28;20020;-59
2022/05/14 00:33:39;;;;;;;0.08;0.08;;;;;;;;;;5050680;28;20021;-59
2022/05/14 00:36:05;;;;;;;0.00;0.00;;;;;;;;;;5061708;28;20098;-57
2022/05/14 00:38:30;;;;;;;0.00;0.00;;;;;;;;;;5059107;28;20017;-57
2022/05/14 00:41:00;;;;;;;0.00;0.00;;;;;;;;;;5052487;28;20427;-58
2022/05/14 00:43:26;;;;;;;0.00;0.00;;;;;;;;;;5047355;28;20013;-57
2022/05/14 00:45:54;;;;;;;0.00;0.00;;;;;;;;;;5058121;28;20024;-57
2022/05/14 00:48:20;;;;;;;0.00;0.00;;;;;;;;;;5056313;28;20048;-56
2022/05/14 00:50:50;;;;;;;0.00;0.00;;;;;;;;;;5052478;28;20091;-57
2022/05/14 00:53:16;;;;;;;0.00;0.00;;;;;;;;;;5062249;28;20103;-59
2022/05/14 00:55:43;;;;;;;0.00;0.00;;;;;;;;;;5052870;28;20100;-59
2022/05/14 00:58:10;;;;;;;0.00;0.00;;;;;;;;;;5049870;28;20031;-57
2022/05/14 01:00:37;;;;;;;0.00;0.00;;;;;;;;;;5057272;28;20032;-58
2022/05/14 01:03:03;;;;;;;0.00;0.00;;;;;;;;;;5063485;28;20052;-55
2022/05/14 01:05:28;;;;;;;0.00;0.00;;;;;;;;;;5053450;28;20024;-57
2022/05/14 01:07:54;;;;;;;0.00;0.00;;;;;;;;;;5052367;28;20126;-58
2022/05/14 01:10:22;;;;;;;0.13;0.13;;;;;;;;;;5051333;28;20021;-58
2022/05/14 01:12:50;;;;;;;0.00;0.00;;;;;;;;;;5046766;28;20028;-55
2022/05/14 01:15:23;;;;;;;0.00;0.00;;;;;;;;;;5065392;28;20028;-57
2022/05/14 01:17:48;;;;;;;2.08;1.85;;;;;;;;;;5060110;28;20028;-54
2022/05/14 01:20:15;;;;;;;5.25;0.98;;;;;;;;;;5059352;28;20021;-58
2022/05/14 01:22:43;;;;;;;0.38;0.38;;;;;;;;;;5040446;28;20470;-55
2022/05/14 01:28:01;;;;;;;0.00;0.00;;;;;;;;;;5058369;28;20044;-55
2022/05/14 01:30:27;;;;;;;0.00;0.00;;;;;;;;;;5048357;28;20045;-58
2022/05/14 01:33:04;;;;;;;0.00;0.00;;;;;;;;;;5057249;28;20057;-57
2022/05/14 01:35:33;;;;;;;0.00;0.00;;;;;;;;;;5051432;28;20025;-58
2022/05/14 01:37:59;;;;;;;0.00;0.00;;;;;;;;;;5047801;28;20048;-58
2022/05/14 01:40:24;;;;;;;0.00;0.00;;;;;;;;;;5059702;28;20063;-58
2022/05/14 01:42:49;;;;;;;0.00;0.00;;;;;;;;;;5059079;28;20020;-58
2022/05/14 01:45:14;;;;;;;0.00;0.00;;;;;;;;;;5057507;28;20037;-56
2022/05/14 01:47:39;;;;;;;0.00;0.00;;;;;;;;;;5049348;28;20131;-54
2022/05/14 01:50:05;;;;;;;0.00;0.00;;;;;;;;;;5057147;28;20496;-56
2022/05/14 01:52:30;;;;;;;0.00;0.00;;;;;;;;;;5060635;28;20504;-58
2022/05/14 01:54:55;;;;;;;0.00;0.00;;;;;;;;;;5058924;28;20079;-58
2022/05/14 01:57:21;;;;;;;0.00;0.00;;;;;;;;;;5055971;28;20028;-57
2022/05/14 01:59:46;;;;;;;0.00;0.00;;;;;;;;;;5054678;28;20017;-56
2022/05/14 02:02:11;;;;;;;0.00;0.00;;;;;;;;;;5060961;28;20032;-57
2022/05/14 02:04:36;;;;;;;0.00;0.00;;;;;;;;;;5052975;28;20037;-59
2022/05/14 02:07:01;;;;;;;0.00;0.00;;;;;;;;;;5059247;28;20031;-58
2022/05/14 02:09:27;;;;;;;0.00;0.00;;;;;;;;;;5057447;28;20033;-59
2022/05/14 02:11:52;;;;;;;0.00;0.00;;;;;;;;;;5061850;28;20033;-58
2022/05/14 02:14:17;;;;;;;0.00;0.00;;;;;;;;;;5060398;28;20033;-58
2022/05/14 02:16:42;;;;;;;0.00;0.00;;;;;;;;;;5060837;28;20020;-58
2022/05/14 02:19:08;;;;;;;0.00;0.00;;;;;;;;;;5056258;28;20048;-55
2022/05/14 02:21:34;;;;;;;0.00;0.00;;;;;;;;;;5051670;28;20947;-54
2022/05/14 02:23:59;;;;;;;0.00;0.00;;;;;;;;;;5059271;28;20102;-56
2022/05/14 02:26:24;;;;;;;0.00;0.00;;;;;;;;;;5059483;28;20024;-57
2022/05/14 02:28:50;;;;;;;0.00;0.00;;;;;;;;;;5050248;28;20048;-56
2022/05/14 02:31:15;;;;;;;0.00;0.00;;;;;;;;;;5054839;28;20035;-57
2022/05/14 02:33:41;;;;;;;0.00;0.00;;;;;;;;;;5055726;28;20531;-59
2022/05/14 02:36:07;;;;;;;0.00;0.00;;;;;;;;;;5057317;28;20361;-57
2022/05/14 02:38:33;;;;;;;0.00;0.00;;;;;;;;;;5052224;28;20021;-58
2022/05/14 02:40:58;;;;;;;0.00;0.00;;;;;;;;;;5052860;28;20120;-58
2022/05/14 02:43:24;;;;;;;2.55;0.90;;;;;;;;;;5050834;28;20718;-59
2022/05/14 02:45:49;;;;;;;0.00;0.00;;;;;;;;;;5056558;28;20531;-57
2022/05/14 02:48:14;;;;;;;0.00;0.00;;;;;;;;;;5056333;28;20034;-58
2022/05/14 02:50:40;;;;;;;0.00;0.00;;;;;;;;;;5058774;28;20036;-59
2022/05/14 02:53:05;;;;;;;0.00;0.00;;;;;;;;;;5054848;28;20509;-59
2022/05/14 02:55:31;;;;;;;0.00;0.00;;;;;;;;;;5055428;28;20053;-56
2022/05/14 02:57:56;;;;;;;0.00;0.00;;;;;;;;;;5057898;28;20676;-53
2022/05/14 03:00:22;;;;;;;0.00;0.00;;;;;;;;;;5051192;28;20052;-50
2022/05/14 03:02:47;;;;;;;0.00;0.00;;;;;;;;;;5049770;28;20386;-56
2022/05/14 03:05:13;;;;;;;0.00;0.00;;;;;;;;;;5056249;28;20025;-58
2022/05/14 03:07:38;;;;;;;0.00;0.00;;;;;;;;;;5056645;28;20063;-57
2022/05/14 03:10:04;;;;;;;0.00;0.00;;;;;;;;;;5057742;28;20111;-56
2022/05/14 03:12:29;;;;;;;0.00;0.00;;;;;;;;;;5063509;28;20036;-57
2022/05/14 03:14:54;;;;;;;0.00;0.00;;;;;;;;;;5055691;28;21285;-56
2022/05/14 03:17:21;;;;;;;0.00;0.00;;;;;;;;;;5053516;28;20013;-54
2022/05/14 03:19:46;;;;;;;0.00;0.00;;;;;;;;;;5039245;28;20369;-56
2022/05/14 03:22:12;;;;;;;0.00;0.00;;;;;;;;;;5061870;28;20028;-56
2022/05/14 03:24:37;;;;;;;0.00;0.00;;;;;;;;;;5063080;28;20039;-57
2022/05/14 03:27:03;;;;;;;0.00;0.00;;;;;;;;;;5055371;28;20021;-57
2022/05/14 03:29:28;;;;;;;0.00;0.00;;;;;;;;;;5055667;28;20052;-52
2022/05/14 03:31:55;;;;;;;0.00;0.00;;;;;;;;;;5058894;28;20024;-57
2022/05/14 03:34:20;;;;;;;0.00;0.00;;;;;;;;;;5062040;28;20346;-59
2022/05/14 03:36:45;;;;;;;0.00;0.00;;;;;;;;;;5061471;28;20027;-59
2022/05/14 03:39:11;;;;;;;0.00;0.00;;;;;;;;;;5053817;28;20028;-58
2022/05/14 03:41:36;;;;;;;0.00;0.00;;;;;;;;;;5035251;28;20367;-58
2022/05/14 03:44:02;;;;;;;0.00;0.00;;;;;;;;;;5051977;28;20082;-58
2022/05/14 03:46:27;;;;;;;0.65;0.65;;;;;;;;;;5050907;28;20083;-57
2022/05/14 03:48:52;;;;;;;0.00;0.00;;;;;;;;;;5051605;28;20024;-57
2022/05/14 03:51:18;;;;;;;0.00;0.00;;;;;;;;;;5064467;28;20052;-57
2022/05/14 03:53:43;;;;;;;0.00;0.00;;;;;;;;;;5059780;28;20036;-57
2022/05/14 03:56:09;;;;;;;0.00;0.00;;;;;;;;;;5062142;28;20021;-57
2022/05/14 03:58:35;;;;;;;0.00;0.00;;;;;;;;;;5057504;28;20017;-58
2022/05/14 04:01:01;;;;;;;0.00;0.00;;;;;;;;;;5057833;28;20028;-56
2022/05/14 04:03:26;;;;;;;0.00;0.00;;;;;;;;;;5056859;28;20021;-58
2022/05/14 04:05:51;;;;;;;0.00;0.00;;;;;;;;;;5061957;28;20889;-58
2022/05/14 04:08:17;;;;;;;0.00;0.00;;;;;;;;;;5061986;28;20036;-58
2022/05/14 04:10:43;;;;;;;0.00;0.00;;;;;;;;;;5051628;28;20383;-58
2022/05/14 04:13:08;;;;;;;0.00;0.00;;;;;;;;;;5056751;28;20025;-58
2022/05/14 04:15:33;;;;;;;0.00;0.00;;;;;;;;;;5054586;28;20034;-57
2022/05/14 04:17:59;;;;;;;0.00;0.00;;;;;;;;;;5053267;28;20020;-55
2022/05/14 04:20:24;;;;;;;0.00;0.00;;;;;;;;;;5049225;28;20017;-53
2022/05/14 04:22:50;;;;;;;0.00;0.00;;;;;;;;;;5059266;28;20410;-56
2022/05/14 04:25:16;;;;;;;0.00;0.00;;;;;;;;;;5056824;28;20032;-55
2022/05/14 04:27:41;;;;;;;2.90;2.65;;;;;;;;;;5061647;28;20029;-57
2022/05/14 04:30:08;;;;;;;0.00;0.00;;;;;;;;;;5035919;28;20049;-55
2022/05/14 04:32:33;;;;;;;0.00;0.00;;;;;;;;;;5030190;28;20084;-56
2022/05/14 04:34:58;;;;;;;0.00;0.00;;;;;;;;;;5026687;28;20045;-58
2022/05/14 04:37:24;;;;;;;0.00;0.00;;;;;;;;;;5030223;28;20072;-53
2022/05/14 04:39:49;;;;;;;0.05;0.05;;;;;;;;;;5024271;28;20029;-56
2022/05/14 04:42:15;;;;;;;0.00;0.00;;;;;;;;;;5027879;28;20017;-56
2022/05/14 04:44:40;;;;;;;0.00;0.00;;;;;;;;;;5028510;28;20030;-57
2022/05/14 04:47:05;;;;;;;0.00;0.00;;;;;;;;;;5027050;28;20027;-56
2022/05/14 04:49:31;;;;;;;0.00;0.00;;;;;;;;;;5028370;28;20405;-55
2022/05/14 04:51:56;;;;;;;0.00;0.00;;;;;;;;;;5029144;28;20034;-57
2022/05/14 04:54:21;;;;;;;0.00;0.00;;;;;;;;;;5024541;28;20064;-57
2022/05/14 04:56:47;;;;;;;0.00;0.00;;;;;;;;;;5026238;28;20049;-56
2022/05/14 04:59:13;;;;;;;0.00;0.00;;;;;;;;;;5028781;28;20017;-59
2022/05/14 05:01:38;;;;;;;0.00;0.00;;;;;;;;;;5024103;28;20030;-57
2022/05/14 05:04:03;;;;;;;0.00;0.00;;;;;;;;;;5028825;28;20021;-56
2022/05/14 05:06:29;;;;;;;0.00;0.00;;;;;;;;;;5023767;28;20110;-57
2022/05/14 05:08:55;;;;;;;0.30;0.30;;;;;;;;;;5021535;28;20025;-58
2022/05/14 05:11:20;;;;;;;0.00;0.00;;;;;;;;;;5022300;28;20029;-59
2022/05/14 05:13:46;;;;;;;0.00;0.00;;;;;;;;;;5021585;28;20025;-57
2022/05/14 05:16:11;;;;;;;0.00;0.00;;;;;;;;;;5028404;28;20024;-58
2022/05/14 05:18:37;;;;;;;0.00;0.00;;;;;;;;;;5020328;28;20014;-54
2022/05/14 05:21:03;;;;;;;0.00;0.00;;;;;;;;;;5023681;28;20200;-57
2022/05/14 05:23:29;;;;;;;0.00;0.00;;;;;;;;;;5024143;28;20021;-56
2022/05/14 05:25:55;;;;;;;0.00;0.00;;;;;;;;;;5020068;28;20029;-56
2022/05/14 05:28:20;;;;;;;0.00;0.00;;;;;;;;;;5025195;28;20025;-55
2022/05/14 05:30:45;;;;;;;0.38;0.20;;;;;;;;;;5062802;28;20078;-54
2022/05/14 05:33:11;;;;;;;0.10;0.10;;;;;;;;;;5057205;28;20025;-57
2022/05/14 05:35:37;;;;;;;0.20;0.20;;;;;;;;;;5061538;28;20016;-56
2022/05/14 05:38:02;;;;;;;0.55;0.20;;;;;;;;;;5050889;28;20027;-58
2022/05/14 05:40:27;;;;;;;0.13;0.13;;;;;;;;;;5055732;28;20035;-57
2022/05/14 05:42:53;;;;;;;0.00;0.00;;;;;;;;;;5060500;28;20032;-57
2022/05/14 05:45:19;;;;;;;0.00;0.00;;;;;;;;;;5057737;28;20029;-58
2022/05/14 05:47:44;;;;;;;0.00;0.00;;;;;;;;;;5061022;28;20512;-57
2022/05/14 05:50:10;;;;;;;0.00;0.00;;;;;;;;;;5052786;28;20021;-58
2022/05/14 05:52:36;;;;;;;0.00;0.00;;;;;;;;;;5055412;28;20124;-56
2022/05/14 05:57:45;;;;;;;0.00;0.00;;;;;;;;;;5049020;28;20036;-57
2022/05/14 06:00:16;;;;;;;0.00;0.00;;;;;;;;;;5056272;28;20017;-57
2022/05/14 06:02:41;;;;;;;0.20;0.20;;;;;;;;;;5058913;28;20543;-56
2022/05/14 06:05:07;;;;;;;0.00;0.00;;;;;;;;;;5057202;28;20021;-61
2022/05/14 06:07:36;;;;;;;0.00;0.00;;;;;;;;;;5065624;28;20031;-57
2022/05/14 06:10:02;;;;;;;0.00;0.00;;;;;;;;;;5057550;28;20033;-50
2022/05/14 06:12:27;;;;;;;0.00;0.00;;;;;;;;;;5060301;28;20086;-57
2022/05/14 06:14:52;;;;;;;0.00;0.00;;;;;;;;;;5062148;28;20120;-52
2022/05/14 06:17:18;;;;;;;0.00;0.00;;;;;;;;;;5051867;28;20361;-55
2022/05/14 06:19:46;;;;;;;0.00;0.00;;;;;;;;;;5056255;28;20469;-56
2022/05/14 06:22:11;;;;;;;0.00;0.00;;;;;;;;;;5047473;28;20624;-55
2022/05/14 06:24:40;;;;;;;0.00;0.00;;;;;;;;;;5055974;28;20120;-56
2022/05/14 06:27:07;;;;;;;0.00;0.00;;;;;;;;;;5060913;28;20024;-55
2022/05/14 06:29:33;;;;;;;0.00;0.00;;;;;;;;;;5064331;28;20505;-54
2022/05/14 06:31:58;;;;;;;0.00;0.00;;;;;;;;;;5051724;28;20032;-56
2022/05/14 06:34:25;;;;;;;1.13;0.80;;;;;;;;;;5060905;28;20104;-54
2022/05/14 06:36:51;;;;;;;0.00;0.00;;;;;;;;;;5059370;28;20107;-56
2022/05/14 06:39:17;;;;;;;0.08;0.08;;;;;;;;;;5050526;28;20438;-60
2022/05/14 06:41:45;;;;;;;0.00;0.00;;;;;;;;;;5057718;28;20028;-60
2022/05/14 06:44:10;;;;;;;0.00;0.00;;;;;;;;;;5060642;28;20418;-60
2022/05/14 06:46:36;;;;;;;0.00;0.00;;;;;;;;;;5056574;28;20112;-60
2022/05/14 06:49:04;;;;;;;0.00;0.00;;;;;;;;;;5054654;28;20473;-60
2022/05/14 06:51:30;;;;;;;0.00;0.00;;;;;;;;;;5061533;28;20016;-59
2022/05/14 06:53:58;;;;;;;0.00;0.00;;;;;;;;;;5056410;28;20427;-58
2022/05/14 06:56:27;;;;;;;1.20;0.75;;;;;;;;;;5058367;28;20075;-58
2022/05/14 06:58:53;;;;;;;0.00;0.00;;;;;;;;;;5056107;28;20029;-58
2022/05/14 07:01:21;;;;;;;0.00;0.00;;;;;;;;;;5056610;28;20029;-56
2022/05/14 07:06:43;;;;;;;0.00;0.00;;;;;;;;;;5057216;28;20023;-58
2022/05/14 07:09:20;;;;;;;0.00;0.00;;;;;;;;;;5059166;28;20029;-58
2022/05/14 07:11:46;;;;;;;0.00;0.00;;;;;;;;;;5061689;28;20035;-60
2022/05/14 07:14:12;;;;;;;0.00;0.00;;;;;;;;;;5056201;28;20017;-57
2022/05/14 07:16:37;;;;;;;0.20;0.20;;;;;;;;;;5058426;28;20709;-58
2022/05/14 07:19:06;;;;;;;0.00;0.00;;;;;;;;;;5065671;28;20036;-59
2022/05/14 07:21:31;;;;;;;0.37;0.37;;;;;;;;;;5065195;28;20051;-58
2022/05/14 07:23:56;;;;;;;0.00;0.00;;;;;;;;;;5059605;28;20045;-58
2022/05/14 07:26:22;;;;;;;0.10;0.10;;;;;;;;;;5059064;28;20013;-59
2022/05/14 07:28:47;;;;;;;0.00;0.00;;;;;;;;;;5063262;28;20036;-59
2022/05/14 07:31:12;;;;;;;0.00;0.00;;;;;;;;;;5062333;28;20078;-58
2022/05/14 07:33:38;;;;;;;0.00;0.00;;;;;;;;;;5057210;28;20017;-59
2022/05/14 07:36:12;;;;;;;0.32;0.32;;;;;;;;;;5062217;28;20274;-59
2022/05/14 07:38:39;;;;;;;2.38;2.17;;;;;;;;;;5061997;28;20033;-58
2022/05/14 07:41:08;;;;;;;0.17;0.17;;;;;;;;;;5061589;28;20089;-58
2022/05/14 07:43:33;;;;;;;;;;;;;;;;;;5059643;28;20048;-58
2022/05/14 07:46:00;;;;;;;0.85;0.80;;;;;;;;;;5061763;28;20450;-58
2022/05/14 07:48:29;;;;;;;0.00;0.00;;;;;;;;;;5058379;28;20032;-58
2022/05/14 07:50:54;;;;;;;1.25;1.15;;;;;;;;;;5055530;28;20025;-59
2022/05/14 07:53:20;;;;;;;0.00;0.00;;;;;;;;;;5060738;28;20029;-59
2022/05/14 07:55:46;;;;;;;0.10;0.10;;;;;;;;;;5058822;28;20021;-58
2022/05/14 07:58:11;;;;;;;6.93;2.00;;;;;;;;;;5056351;28;20017;-57
2022/05/14 08:00:37;;;;;;;2.13;2.03;;;;;;;;;;5060297;28;20446;-58
2022/05/14 08:03:03;;;;;;;0.00;0.00;;;;;;;;;;5055884;28;20028;-58
2022/05/14 08:05:28;;;;;;;0.00;0.00;;;;;;;;;;5052698;28;20102;-58
2022/05/14 08:07:54;;;;;;;0.00;0.00;;;;;;;;;;5053714;28;20036;-58
2022/05/14 08:10:19;;;;;;;0.00;0.00;;;;;;;;;;5059954;28;20028;-58
2022/05/14 08:12:51;;;;;;;0.00;0.00;;;;;;;;;;5052610;28;20024;-58
2022/05/14 08:15:18;;;;;;;0.00;0.00;;;;;;;;;;5055820;28;20013;-58
2022/05/14 08:17:43;;;;;;;0.73;0.30;;;;;;;;;;5058561;28;20426;-58
2022/05/14 08:20:09;;;;;;;0.00;0.00;;;;;;;;;;5057659;28;20080;-58
2022/05/14 08:25:20;;;;;;;0.00;0.00;;;;;;;;;;5014993;28;20037;-58
2022/05/14 08:27:45;;;;;;;0.00;0.00;;;;;;;;;;5055717;28;20031;-57
2022/05/14 08:30:11;;;;;;;2.80;1.58;;;;;;;;;;5043656;28;20389;-58
2022/05/14 08:32:37;;;;;;;0.00;0.00;;;;;;;;;;5039529;28;20029;-58
2022/05/14 08:35:02;;;;;;;0.00;0.00;;;;;;;;;;5038831;28;20035;-59
2022/05/14 08:37:27;;;;;;;0.10;0.10;;;;;;;;;;5040495;28;20354;-58
2022/05/14 08:39:52;;;;;;;0.00;0.00;;;;;;;;;;5038940;28;20495;-58
2022/05/14 08:42:18;;;;;;;0.30;0.30;;;;;;;;;;5039257;28;20080;-58
2022/05/14 08:44:44;;;;;;;0.00;0.00;;;;;;;;;;5041386;28;20256;-63
2022/05/14 08:47:22;;;;;;;0.85;0.70;;;;;;;;;;5042620;28;20017;-58
2022/05/14 08:49:49;;;;;;;0.00;0.00;;;;;;;;;;5040429;28;20020;-60
2022/05/14 08:52:24;;;;;;;0.20;0.20;;;;;;;;;;5040039;28;20021;-59
2022/05/14 08:54:52;;;;;;;0.00;0.00;;;;;;;;;;5039640;28;20033;-57
2022/05/14 08:57:21;;;;;;;0.00;0.00;;;;;;;;;;5039974;28;20097;-56
2022/05/14 08:59:46;;;;;;;0.08;0.08;;;;;;;;;;5038722;28;21659;-58
2022/05/14 09:02:20;;;;;;;0.00;0.00;;;;;;;;;;5042727;28;20021;-58
2022/05/14 09:04:45;;;;;;;0.13;0.13;;;;;;;;;;5038383;28;20266;-58
2022/05/14 09:07:11;;;;;;;0.00;0.00;;;;;;;;;;5040296;28;20021;-58
2022/05/14 09:09:46;;;;;;;0.00;0.00;;;;;;;;;;5038583;28;20025;-58
2022/05/14 09:12:15;;;;;;;0.00;0.00;;;;;;;;;;5039513;28;20017;-59
2022/05/14 09:14:40;;;;;;;0.00;0.00;;;;;;;;;;5039100;28;20401;-58
2022/05/14 09:17:18;;;;;;;0.55;0.55;;;;;;;;;;5040539;28;20026;-58
2022/05/14 09:19:44;;;;;;;;;;;;;;;;;;5038510;28;20137;-58
2022/05/14 09:22:12;;;;;;;0.00;0.00;;;;;;;;;;5039282;28;20365;-58
2022/05/14 09:24:43;;;;;;;0.00;0.00;;;;;;;;;;5036003;28;20032;-57
2022/05/14 09:27:20;;;;;;;0.00;0.00;;;;;;;;;;5036458;28;20303;-58
2022/05/14 09:29:47;;;;;;;0.05;0.05;;;;;;;;;;5052401;28;20501;-59
2022/05/14 09:32:20;;;;;;;0.20;0.20;;;;;;;;;;5057020;28;20541;-57
2022/05/14 09:34:46;;;;;;;0.00;0.00;;;;;;;;;;5051184;28;20474;-59
2022/05/14 09:37:12;;;;;;;0.00;0.00;;;;;;;;;;5057382;28;20035;-58
2022/05/14 09:39:37;;;;;;;0.00;0.00;;;;;;;;;;5057667;28;20074;-58
2022/05/14 09:42:04;;;;;;;0.25;0.25;;;;;;;;;;5052860;28;20025;-57
2022/05/14 09:44:49;;;;;;;0.13;0.13;;;;;;;;;;5058375;28;20021;-59
2022/05/14 09:47:16;;;;;;;0.00;0.00;;;;;;;;;;5060208;28;20024;-58
2022/05/14 09:49:52;;;;;;;0.00;0.00;;;;;;;;;;5055179;28;20028;-58
2022/05/14 09:52:22;;;;;;;0.00;0.00;;;;;;;;;;5054240;28;20048;-57
2022/05/14 09:54:49;;;;;;;0.00;0.00;;;;;;;;;;5047768;28;20099;-61
2022/05/14 09:57:34;;;;;;;0.00;0.00;;;;;;;;;;5052396;28;20016;-58
2022/05/14 10:00:06;;;;;;;0.00;0.00;;;;;;;;;;5048750;28;20052;-59
2022/05/14 10:02:44;;;;;;;0.30;0.30;;;;;;;;;;5056532;28;20409;-58
2022/05/14 10:05:15;;;;;;;0.00;0.00;;;;;;;;;;5056202;28;20029;-58
2022/05/14 10:07:43;;;;;;;0.00;0.00;;;;;;;;;;5058623;28;20056;-60
2022/05/14 10:10:15;;;;;;;0.00;0.00;;;;;;;;;;5057457;28;20025;-57
2022/05/14 10:12:46;;;;;;;0.00;0.00;;;;;;;;;;5057773;28;20059;-57
2022/05/14 10:15:14;;;;;;;0.00;0.00;;;;;;;;;;5057124;28;20032;-59
2022/05/14 10:17:46;;;;;;;0.00;0.00;;;;;;;;;;5055233;28;20044;-59
2022/05/14 10:20:32;;;;;;;0.00;0.00;;;;;;;;;;5055143;28;20044;-57
2022/05/14 10:28:56;;;;;;;0.00;0.00;;;;;;;;;;5060352;28;20464;-57
2022/05/14 10:31:40;;;;;;;0.00;0.00;;;;;;;;;;5054056;28;20033;-58
2022/05/14 10:34:10;;;;;;;0.43;0.43;;;;;;;;;;5052050;28;20024;-60
2022/05/14 10:36:41;;;;;;;0.00;0.00;;;;;;;;;;5050214;28;20461;-60
2022/05/14 10:39:32;;;;;;;0.00;0.00;;;;;;;;;;5049354;28;20769;-60
2022/05/14 10:42:03;;;;;;;0.00;0.00;;;;;;;;;;5053451;28;20107;-60
2022/05/14 10:44:40;;;;;;;0.28;0.28;;;;;;;;;;5052721;28;20021;-60
2022/05/14 10:47:09;;;;;;;0.20;0.20;;;;;;;;;;5054491;28;20381;-59
2022/05/14 10:49:37;;;;;;;0.43;0.43;;;;;;;;;;5046999;28;20030;-61
2022/05/14 10:52:03;;;;;;;0.00;0.00;;;;;;;;;;5052696;28;20048;-58
2022/05/14 10:54:32;;;;;;;0.00;0.00;;;;;;;;;;5049290;28;20037;-62
2022/05/14 10:56:57;;;;;;;0.00;0.00;;;;;;;;;;5035481;28;20112;-59
2022/05/14 10:59:33;;;;;;;2.17;0.90;;;;;;;;;;5049798;28;20428;-58
2022/05/14 11:02:04;;;;;;;0.70;0.70;;;;;;;;;;5052831;28;20022;-58
2022/05/14 11:04:42;;;;;;;0.00;0.00;;;;;;;;;;5039636;28;20056;-58
2022/05/14 11:07:09;;;;;;;0.10;0.10;;;;;;;;;;5051275;28;20039;-59
2022/05/14 11:09:34;;;;;;;0.75;0.75;;;;;;;;;;5058761;28;20032;-57
2022/05/14 11:12:01;;;;;;;0.00;0.00;;;;;;;;;;5051425;28;20028;-58
2022/05/14 11:14:46;;;;;;;0.00;0.00;;;;;;;;;;5047032;28;20275;-58
2022/05/14 11:17:28;;;;;;;0.00;0.00;;;;;;;;;;5054887;28;20093;-58
2022/05/14 11:20:02;;;;;;;0.05;0.05;;;;;;;;;;5056834;28;20596;-61
2022/05/14 11:22:31;;;;;;;0.60;0.60;;;;;;;;;;5047127;28;20024;-60
2022/05/14 11:24:57;;;;;;;0.30;0.30;;;;;;;;;;5048179;28;20029;-60
2022/05/14 11:27:33;;;;;;;0.00;0.00;;;;;;;;;;5054217;28;20595;-63
2022/05/14 11:30:01;;;;;;;0.05;0.05;;;;;;;;;;5063471;28;20040;-62
2022/05/14 11:32:26;;;;;;;0.00;0.00;;;;;;;;;;5061315;28;20040;-59
2022/05/14 11:34:53;;;;;;;0.00;0.00;;;;;;;;;;5051027;28;20032;-62
2022/05/14 11:37:36;;;;;;;0.00;0.00;;;;;;;;;;5055599;28;20040;-61
2022/05/14 11:40:19;;;;;;;0.00;0.00;;;;;;;;;;5063635;28;20135;-62
2022/05/14 11:42:46;;;;;;;0.00;0.00;;;;;;;;;;5064861;28;20024;-60
2022/05/14 11:45:16;;;;;;;0.38;0.32;;;;;;;;;;5053175;28;20040;-61
2022/05/14 11:47:53;;;;;;;0.00;0.00;;;;;;;;;;5057179;28;20021;-61
2022/05/14 11:50:19;;;;;;;0.05;0.00;;;;;;;;;;5054713;28;20033;-59
2022/05/14 11:52:56;;;;;;;0.00;0.00;;;;;;;;;;5055840;28;20028;-57
2022/05/14 11:55:22;;;;;;;0.00;0.00;;;;;;;;;;5055462;28;20120;-60
2022/05/14 11:57:53;;;;;;;0.00;0.00;;;;;;;;;;5050204;28;20542;-59
2022/05/14 12:00:18;;;;;;;0.00;0.00;;;;;;;;;;5040937;28;20016;-60
2022/05/14 12:02:46;;;;;;;0.85;0.52;;;;;;;;;;5057969;28;20078;-59
2022/05/14 12:05:14;;;;;;;0.00;0.00;;;;;;;;;;5057874;28;20040;-59
2022/05/14 12:07:39;;;;;;;0.00;0.00;;;;;;;;;;5061981;28;20107;-60
2022/05/14 12:10:20;;;;;;;0.00;0.00;;;;;;;;;;5061827;28;20103;-61
2022/05/14 12:13:06;;;;;;;0.00;0.00;;;;;;;;;;5050869;28;20025;-61
2022/05/14 12:15:32;;;;;;;0.00;0.00;;;;;;;;;;5058922;28;20025;-62
2022/05/14 12:17:59;;;;;;;0.00;0.00;;;;;;;;;;5054976;28;20036;-59
2022/05/14 12:20:26;;;;;;;0.00;0.00;;;;;;;;;;5057698;28;20024;-62
2022/05/14 12:22:56;;;;;;;0.00;0.00;;;;;;;;;;5058847;28;20021;-62
2022/05/14 12:25:32;;;;;;;0.00;0.00;;;;;;;;;;5057482;28;20031;-62
2022/05/14 12:27:58;;;;;;;0.60;0.60;;;;;;;;;;5044286;28;20036;-62
2022/05/14 12:33:13;;;;;;;0.00;0.00;;;;;;;;;;5025504;28;20053;-63
2022/05/14 12:35:41;;;;;;;0.00;0.00;;;;;;;;;;5048239;28;20106;-61
2022/05/14 12:38:08;;;;;;;0.00;0.00;;;;;;;;;;5053129;28;20093;-60
2022/05/14 12:40:38;;;;;;;0.00;0.00;;;;;;;;;;5046584;28;20021;-61
2022/05/14 12:43:12;;;;;;;0.00;0.00;;;;;;;;;;5053942;28;20107;-59
2022/05/14 12:45:39;;;;;;;0.10;0.10;;;;;;;;;;5049696;28;20056;-58
2022/05/14 12:48:05;;;;;;;0.00;0.00;;;;;;;;;;5049801;28;20020;-59
2022/05/14 12:50:32;;;;;;;0.00;0.00;;;;;;;;;;5057373;28;20178;-59
2022/05/14 12:52:59;;;;;;;0.70;0.10;;;;;;;;;;5053084;28;20428;-60
2022/05/14 12:55:25;;;;;;;0.00;0.00;;;;;;;;;;5053980;28;20109;-60
2022/05/14 12:57:51;;;;;;;0.28;0.28;;;;;;;;;;5054953;28;20025;-59
2022/05/14 13:00:17;;;;;;;0.28;0.28;;;;;;;;;;5054225;28;20505;-60
2022/05/14 13:02:45;;;;;;;0.00;0.00;;;;;;;;;;5041104;28;20030;-60
2022/05/14 13:05:19;;;;;;;0.00;0.00;;;;;;;;;;5055460;28;20086;-63
2022/05/14 13:07:56;;;;;;;0.00;0.00;;;;;;;;;;5066051;28;20012;-60
2022/05/14 13:10:25;;;;;;;0.00;0.00;;;;;;;;;;5061591;28;20064;-61
2022/05/14 13:13:03;;;;;;;0.20;0.20;;;;;;;;;;5061995;28;20040;-59
2022/05/14 13:15:32;;;;;;;0.33;0.10;;;;;;;;;;5055501;28;20028;-59
2022/05/14 13:17:57;;;;;;;0.00;0.00;;;;;;;;;;5059085;28;20033;-57
2022/05/14 13:20:24;;;;;;;0.00;0.00;;;;;;;;;;5058292;28;20028;-59
2022/05/14 13:23:00;;;;;;;0.00;0.00;;;;;;;;;;5060744;28;20055;-59
2022/05/14 13:25:26;;;;;;;0.00;0.00;;;;;;;;;;5058551;28;20096;-59
2022/05/14 13:27:51;;;;;;;0.00;0.00;;;;;;;;;;5058869;28;20091;-59
2022/05/14 13:30:18;;;;;;;0.00;0.00;;;;;;;;;;5056477;28;20654;-59
2022/05/14 13:32:43;;;;;;;0.00;0.00;;;;;;;;;;5052465;28;20031;-61
2022/05/14 13:38:05;;;;;;;0.10;0.10;;;;;;;;;;5062384;28;20546;-58
2022/05/14 13:40:33;;;;;;;0.55;0.55;;;;;;;;;;5053153;28;20136;-58
2022/05/14 13:43:10;;;;;;;0.13;0.03;;;;;;;;;;5051187;28;20104;-57
2022/05/14 13:45:40;;;;;;;0.35;0.35;;;;;;;;;;5047039;28;20021;-58
2022/05/14 13:48:10;;;;;;;0.10;0.10;;;;;;;;;;5053913;28;20031;-57
2022/05/14 13:50:37;;;;;;;0.00;0.00;;;;;;;;;;5051063;28;20789;-57
2022/05/14 13:53:03;;;;;;;0.00;0.00;;;;;;;;;;5052454;28;20024;-56
2022/05/14 13:55:31;;;;;;;0.00;0.00;;;;;;;;;;5053458;28;20162;-58
2022/05/14 13:57:57;;;;;;;0.05;0.03;;;;;;;;;;5054695;28;20029;-56
2022/05/14 14:00:24;;;;;;;0.00;0.00;;;;;;;;;;5055067;28;20104;-57
2022/05/14 14:03:04;;;;;;;0.00;0.00;;;;;;;;;;5047864;28;20485;-57
2022/05/14 14:05:30;;;;;;;0.00;0.00;;;;;;;;;;5057403;28;20032;-59
2022/05/14 14:07:56;;;;;;;0.20;0.20;;;;;;;;;;5053976;28;20032;-60
2022/05/14 14:10:33;;;;;;;0.80;0.80;;;;;;;;;;5053886;28;20029;-59
2022/05/14 14:12:59;;;;;;;0.00;0.00;;;;;;;;;;5051685;28;20338;-61
2022/05/14 14:15:26;;;;;;;0.00;0.00;;;;;;;;;;5058589;28;20021;-61
2022/05/14 14:17:52;;;;;;;0.00;0.00;;;;;;;;;;5057033;28;20377;-62
2022/05/14 14:20:18;;;;;;;0.00;0.00;;;;;;;;;;5052824;28;20037;-60
2022/05/14 14:22:43;;;;;;;0.00;0.00;;;;;;;;;;5043667;28;20195;-59
2022/05/14 14:25:09;;;;;;;0.00;0.00;;;;;;;;;;5047657;28;20031;-58
2022/05/14 14:27:35;;;;;;;0.00;0.00;;;;;;;;;;5054984;28;20025;-59
2022/05/14 14:30:00;;;;;;;0.00;0.00;;;;;;;;;;5051903;28;20044;-62
2022/05/14 14:32:26;;;;;;;1.30;0.25;;;;;;;;;;5059804;28;20060;-60
2022/05/14 14:34:51;;;;;;;0.00;0.00;;;;;;;;;;5037662;28;20119;-59
2022/05/14 14:37:17;;;;;;;0.00;0.00;;;;;;;;;;5049858;28;20045;-60
2022/05/14 14:39:43;;;;;;;0.00;0.00;;;;;;;;;;5056762;28;20029;-58
2022/05/14 14:42:09;;;;;;;0.00;0.00;;;;;;;;;;5054883;28;20036;-58
2022/05/14 14:44:34;;;;;;;0.00;0.00;;;;;;;;;;5052861;28;20053;-58
2022/05/14 14:46:59;;;;;;;0.00;0.00;;;;;;;;;;5055519;28;20056;-57
2022/05/14 14:49:27;;;;;;;0.00;0.00;;;;;;;;;;5054060;28;20039;-57
2022/05/14 14:51:52;;;;;;;0.25;0.25;;;;;;;;;;5058479;28;20020;-57
2022/05/14 14:54:18;;;;;;;0.00;0.00;;;;;;;;;;5053743;28;20020;-58
2022/05/14 14:56:43;;;;;;;0.00;0.00;;;;;;;;;;5057788;28;20017;-61
2022/05/14 14:59:08;;;;;;;0.00;0.00;;;;;;;;;;5051630;28;20807;-58
2022/05/14 15:01:36;;;;;;;0.00;0.00;;;;;;;;;;5063203;28;20977;-59
2022/05/14 15:04:07;;;;;;;0.00;0.00;;;;;;;;;;5053560;28;20029;-57
2022/05/14 15:06:33;;;;;;;0.05;0.05;;;;;;;;;;5060114;28;20040;-57
2022/05/14 15:09:03;;;;;;;0.00;0.00;;;;;;;;;;5054886;28;20497;-59
2022/05/14 15:11:31;;;;;;;0.00;0.00;;;;;;;;;;5050748;28;20040;-57